Time;durP1;ratioP1;P1;durP2;ratioP2;P2;SDS_P1;SDS_P2;PMS_P1;PMS_P2;Temp;Humidity;BMP_temperature;BMP_pressure;BME280_temperature;BME280_humidity;BME280_pressure;Samples;Min_cycle;Max_cycle;Signal;HPM_P1;HPM_P2
2023/03/15 00:01:15;;;;;;;7.10;4.50;;;3.80;99.90;;;;;;4915538;29;20243;-81
2023/03/15 00:03:42;;;;;;;9.68;5.00;;;3.90;99.90;;;;;;4922168;29;20227;-81
2023/03/15 00:06:10;;;;;;;9.07;4.10;;;3.90;99.90;;;;;;4923825;29;20271;-82
2023/03/15 00:08:37;;;;;;;10.20;3.78;;;3.70;99.90;;;;;;4919640;29;20235;-81
2023/03/15 00:11:05;;;;;;;9.75;4.32;;;3.70;99.90;;;;;;4921331;29;20221;-81
2023/03/15 00:13:32;;;;;;;10.35;4.40;;;3.60;99.90;;;;;;4920042;29;20223;-78
2023/03/15 00:16:02;;;;;;;7.68;4.35;;;3.70;99.90;;;;;;4916039;29;20258;-82
2023/03/15 00:18:29;;;;;;;9.13;3.55;;;3.70;99.90;;;;;;4919175;29;20516;-80
2023/03/15 00:20:56;;;;;;;10.93;5.35;;;3.50;99.90;;;;;;4917004;29;20260;-79
2023/03/15 00:23:24;;;;;;;7.03;3.83;;;3.50;99.90;;;;;;4917412;29;20239;-80
2023/03/15 00:25:52;;;;;;;5.85;3.70;;;3.40;99.90;;;;;;4917961;29;20212;-82
2023/03/15 00:28:19;;;;;;;8.98;3.88;;;3.40;99.90;;;;;;4922040;29;20239;-81
2023/03/15 00:30:46;;;;;;;5.63;4.38;;;3.50;99.90;;;;;;4920186;29;20212;-80
2023/03/15 00:33:14;;;;;;;9.10;3.47;;;3.50;99.90;;;;;;4916998;29;20614;-80
2023/03/15 00:35:43;;;;;;;8.48;3.78;;;3.50;99.90;;;;;;4921683;29;20278;-80
2023/03/15 00:38:12;;;;;;;8.50;4.38;;;3.40;99.90;;;;;;4916663;29;20251;-81
2023/03/15 00:40:39;;;;;;;6.25;4.53;;;3.40;99.90;;;;;;4923564;29;20216;-80
2023/03/15 00:43:06;;;;;;;11.07;4.82;;;3.30;99.90;;;;;;4909870;29;20259;-81
2023/03/15 00:45:33;;;;;;;12.73;4.88;;;3.30;99.90;;;;;;4919970;29;20211;-80
2023/03/15 00:48:00;;;;;;;8.65;4.57;;;3.30;99.90;;;;;;4922241;29;20238;-81
2023/03/15 00:50:27;;;;;;;7.25;4.38;;;3.30;99.90;;;;;;4922071;29;20227;-80
2023/03/15 00:52:54;;;;;;;6.38;4.60;;;3.20;99.90;;;;;;4917485;29;20211;-80
2023/03/15 00:55:21;;;;;;;7.95;3.88;;;3.10;99.90;;;;;;4915933;29;20218;-81
2023/03/15 00:57:48;;;;;;;10.15;5.60;;;3.20;99.90;;;;;;4918432;29;20531;-80
2023/03/15 01:00:19;;;;;;;10.25;4.80;;;3.20;99.90;;;;;;4914650;29;20219;-80
2023/03/15 01:02:46;;;;;;;7.63;3.63;;;3.20;99.90;;;;;;4917049;29;20265;-81
2023/03/15 01:05:14;;;;;;;9.32;4.40;;;3.20;99.90;;;;;;4915436;29;20359;-80
2023/03/15 01:07:41;;;;;;;10.90;4.07;;;3.20;99.90;;;;;;4914892;29;20224;-80
2023/03/15 01:10:09;;;;;;;9.23;2.92;;;3.20;99.90;;;;;;4921838;29;20212;-82
2023/03/15 01:12:37;;;;;;;8.40;2.97;;;3.20;99.90;;;;;;4918439;29;20215;-82
2023/03/15 01:15:06;;;;;;;8.45;3.40;;;3.30;99.90;;;;;;4908682;29;20208;-79
2023/03/15 01:17:32;;;;;;;14.07;3.50;;;3.20;99.90;;;;;;4921153;29;20215;-80
2023/03/15 01:19:59;;;;;;;4.88;2.95;;;3.20;99.90;;;;;;4917385;29;20219;-80
2023/03/15 01:22:26;;;;;;;7.15;2.95;;;3.30;99.90;;;;;;4908939;29;20607;-79
2023/03/15 01:24:53;;;;;;;6.65;3.13;;;3.30;99.90;;;;;;4912583;29;20312;-79
2023/03/15 01:27:20;;;;;;;10.18;2.85;;;3.20;99.90;;;;;;4920604;29;20218;-80
2023/03/15 01:29:47;;;;;;;8.32;2.75;;;3.20;99.90;;;;;;4919445;29;20211;-79
2023/03/15 01:32:17;;;;;;;3.35;2.00;;;3.20;99.90;;;;;;4922868;29;20416;-81
2023/03/15 01:34:44;;;;;;;15.93;3.75;;;3.10;99.90;;;;;;4913663;29;20212;-80
2023/03/15 01:37:13;;;;;;;4.80;2.08;;;3.10;99.90;;;;;;4917694;29;20449;-81
2023/03/15 01:39:41;;;;;;;6.68;2.60;;;3.10;99.90;;;;;;4909284;29;20231;-80
2023/03/15 01:42:09;;;;;;;6.57;2.65;;;3.10;99.90;;;;;;4918768;29;20507;-81
2023/03/15 01:45:25;;;;;;;6.70;2.90;;;3.10;99.90;;;;;;4913819;29;20219;-79
2023/03/15 01:47:52;;;;;;;6.93;2.75;;;3.10;99.90;;;;;;4915091;29;20207;-80
2023/03/15 01:50:24;;;;;;;4.78;2.05;;;3.00;99.90;;;;;;4921256;29;20412;-79
2023/03/15 01:52:52;;;;;;;3.97;1.92;;;3.00;99.90;;;;;;4919224;29;20222;-80
2023/03/15 01:55:19;;;;;;;1.60;1.40;;;3.00;99.90;;;;;;4921672;29;20496;-80
2023/03/15 01:57:54;;;;;;;6.88;2.38;;;2.90;99.90;;;;;;4916057;29;20205;-79
2023/03/15 02:00:22;;;;;;;4.28;2.17;;;2.80;99.90;;;;;;4913259;29;20221;-79
2023/03/15 02:02:58;;;;;;;6.20;1.75;;;2.90;99.90;;;;;;4907170;29;20238;-81
2023/03/15 02:05:38;;;;;;;4.03;1.70;;;2.90;99.90;;;;;;4911484;29;20262;-81
2023/03/15 02:08:07;;;;;;;5.60;2.00;;;2.90;99.90;;;;;;4912581;29;20223;-80
2023/03/15 02:10:44;;;;;;;5.45;2.35;;;3.00;99.90;;;;;;4920747;29;20215;-80
2023/03/15 02:13:13;;;;;;;5.40;1.73;;;2.90;99.90;;;;;;4920951;29;20278;-80
2023/03/15 02:15:45;;;;;;;4.15;1.80;;;2.90;99.90;;;;;;4910653;29;20211;-80
2023/03/15 02:18:12;;;;;;;4.25;2.00;;;2.80;99.90;;;;;;4917472;29;20207;-81
2023/03/15 02:20:59;;;;;;;6.15;1.98;;;2.80;99.90;;;;;;4911402;29;20222;-79
2023/03/15 02:23:27;;;;;;;5.43;1.98;;;2.80;99.90;;;;;;4911088;29;20238;-82
2023/03/15 02:26:10;;;;;;;10.75;2.88;;;2.80;99.90;;;;;;4914558;29;20261;-80
2023/03/15 02:28:37;;;;;;;10.75;1.73;;;2.90;99.90;;;;;;4917521;29;20209;-80
2023/03/15 02:31:04;;;;;;;5.18;2.05;;;2.90;99.90;;;;;;4909621;29;20223;-81
2023/03/15 02:33:44;;;;;;;9.02;1.30;;;2.80;99.90;;;;;;4915485;29;20246;-80
2023/03/15 02:36:20;;;;;;;11.15;1.85;;;2.80;99.90;;;;;;4919505;29;20515;-81
2023/03/15 02:38:49;;;;;;;10.88;1.88;;;2.70;99.90;;;;;;4918047;29;20219;-80
2023/03/15 02:41:20;;;;;;;3.85;2.35;;;2.60;99.90;;;;;;4912604;29;20215;-80
2023/03/15 02:43:50;;;;;;;10.05;3.28;;;2.80;99.90;;;;;;4918048;29;20226;-79
2023/03/15 02:46:18;;;;;;;5.93;1.98;;;2.60;99.90;;;;;;4913672;29;20260;-78
2023/03/15 02:48:46;;;;;;;8.18;2.67;;;2.50;99.90;;;;;;4906327;29;20214;-80
2023/03/15 02:51:23;;;;;;;4.32;1.70;;;2.50;99.90;;;;;;4917408;29;20273;-80
2023/03/15 02:53:50;;;;;;;6.53;2.40;;;2.50;99.90;;;;;;4908242;29;20203;-81
2023/03/15 02:56:17;;;;;;;8.85;2.35;;;2.50;99.90;;;;;;4917324;29;20207;-82
2023/03/15 02:58:44;;;;;;;6.72;2.22;;;2.50;99.90;;;;;;4904213;29;20230;-81
2023/03/15 03:01:13;;;;;;;5.20;2.70;;;2.40;99.90;;;;;;4914093;29;20555;-79
2023/03/15 03:03:41;;;;;;;6.63;2.45;;;2.40;99.90;;;;;;4914864;29;21108;-80
2023/03/15 03:06:09;;;;;;;14.07;5.03;;;2.40;99.90;;;;;;4907501;29;20207;-81
2023/03/15 03:08:38;;;;;;;8.35;2.88;;;2.40;99.90;;;;;;4915641;29;20222;-80
2023/03/15 03:11:06;;;;;;;5.50;2.95;;;2.30;99.90;;;;;;4913785;29;20238;-79
2023/03/15 03:13:33;;;;;;;6.15;2.05;;;2.30;99.90;;;;;;4911938;29;20265;-80
2023/03/15 03:16:00;;;;;;;6.43;2.90;;;2.40;99.90;;;;;;4913018;29;20214;-80
2023/03/15 03:18:28;;;;;;;7.25;2.60;;;2.30;99.90;;;;;;4916523;29;20215;-80
2023/03/15 03:20:56;;;;;;;4.88;2.10;;;2.20;99.90;;;;;;4912900;29;20573;-80
2023/03/15 03:23:24;;;;;;;7.60;1.60;;;2.20;99.90;;;;;;4912534;29;20238;-79
2023/03/15 03:25:53;;;;;;;11.70;2.50;;;2.20;99.90;;;;;;4917470;29;20526;-80
2023/03/15 03:28:22;;;;;;;9.30;3.85;;;2.20;99.90;;;;;;4918071;29;20209;-80
2023/03/15 03:30:51;;;;;;;6.55;1.73;;;2.20;99.90;;;;;;4906177;29;20195;-80
2023/03/15 03:33:18;;;;;;;7.80;2.72;;;2.20;99.90;;;;;;4920994;29;20225;-80
2023/03/15 03:35:45;;;;;;;6.50;2.15;;;2.30;99.90;;;;;;4911002;29;20212;-81
2023/03/15 03:38:13;;;;;;;4.70;2.30;;;2.20;99.90;;;;;;4913097;29;20423;-80
2023/03/15 03:40:41;;;;;;;5.20;2.15;;;2.20;99.90;;;;;;4913383;29;20346;-80
2023/03/15 03:43:08;;;;;;;4.72;1.90;;;2.30;99.90;;;;;;4925915;29;20221;-80
2023/03/15 03:45:35;;;;;;;5.32;2.35;;;2.20;99.90;;;;;;4931309;29;20196;-79
2023/03/15 03:48:02;;;;;;;5.18;1.77;;;2.20;99.90;;;;;;4938447;29;20202;-80
2023/03/15 03:50:30;;;;;;;4.45;2.40;;;2.20;99.90;;;;;;4931371;29;20213;-80
2023/03/15 03:52:57;;;;;;;14.40;2.60;;;2.20;99.90;;;;;;4911081;29;20208;-79
2023/03/15 03:55:24;;;;;;;2.95;1.90;;;2.20;99.90;;;;;;4913403;29;20374;-79
2023/03/15 03:57:54;;;;;;;4.22;2.00;;;2.30;99.90;;;;;;4914668;29;20227;-80
2023/03/15 04:00:21;;;;;;;7.85;1.90;;;2.20;99.90;;;;;;4909562;29;20211;-81
2023/03/15 04:02:48;;;;;;;8.65;2.60;;;2.20;99.90;;;;;;4917694;29;20232;-80
2023/03/15 04:05:15;;;;;;;9.65;2.60;;;2.20;99.90;;;;;;4921272;29;20245;-81
2023/03/15 04:07:42;;;;;;;7.22;2.35;;;2.20;99.90;;;;;;4916587;29;20213;-80
2023/03/15 04:10:13;;;;;;;4.38;1.83;;;2.20;99.90;;;;;;4914068;29;20262;-82
2023/03/15 04:12:43;;;;;;;5.93;1.75;;;2.20;99.90;;;;;;4914139;29;20281;-81
2023/03/15 04:15:11;;;;;;;5.05;2.03;;;2.10;99.90;;;;;;4913410;29;20442;-82
2023/03/15 04:17:38;;;;;;;7.68;2.38;;;2.10;99.90;;;;;;4905377;29;20571;-79
2023/03/15 04:20:08;;;;;;;4.70;1.60;;;1.90;99.90;;;;;;4918839;29;20232;-79
2023/03/15 04:22:35;;;;;;;7.30;2.75;;;2.10;99.90;;;;;;4917149;29;20437;-79
2023/03/15 04:25:02;;;;;;;17.13;3.72;;;2.00;99.90;;;;;;4910315;29;20437;-80
2023/03/15 04:27:29;;;;;;;4.22;1.70;;;2.20;99.90;;;;;;4920001;29;20213;-79
2023/03/15 04:29:56;;;;;;;6.43;2.10;;;2.10;99.90;;;;;;4915122;29;20313;-81
2023/03/15 04:32:23;;;;;;;7.38;2.53;;;2.10;99.90;;;;;;4912202;29;20215;-80
2023/03/15 04:34:50;;;;;;;7.72;2.70;;;2.20;99.90;;;;;;4919441;29;20226;-81
2023/03/15 04:37:17;;;;;;;7.13;2.88;;;2.40;99.90;;;;;;4908452;29;20214;-81
2023/03/15 04:39:44;;;;;;;11.43;2.90;;;2.40;99.90;;;;;;4923311;29;20715;-80
2023/03/15 04:42:11;;;;;;;3.22;1.70;;;2.30;99.90;;;;;;4916760;29;20218;-81
2023/03/15 04:44:38;;;;;;;10.77;2.65;;;2.20;99.90;;;;;;4912455;29;20245;-80
2023/03/15 04:47:05;;;;;;;3.53;1.80;;;2.10;99.90;;;;;;4919755;29;20414;-81
2023/03/15 04:49:32;;;;;;;6.03;2.28;;;1.80;99.90;;;;;;4922094;29;20202;-81
2023/03/15 04:52:00;;;;;;;4.97;2.03;;;1.70;99.90;;;;;;4921586;29;20217;-82
2023/03/15 04:54:27;;;;;;;9.85;2.67;;;1.70;99.90;;;;;;4922198;29;20585;-84
2023/03/15 04:56:54;;;;;;;5.55;2.00;;;1.80;99.90;;;;;;4921497;29;20214;-83
2023/03/15 04:59:21;;;;;;;8.20;2.80;;;1.70;99.90;;;;;;4922773;29;20519;-82
2023/03/15 05:01:47;;;;;;;5.15;2.08;;;1.80;99.90;;;;;;4910803;29;20630;-84
2023/03/15 05:04:15;;;;;;;8.23;2.22;;;2.00;99.90;;;;;;4915947;29;20238;-82
2023/03/15 05:06:42;;;;;;;5.43;2.33;;;2.10;99.90;;;;;;4905965;29;20502;-83
2023/03/15 05:09:08;;;;;;;5.78;2.15;;;1.90;99.90;;;;;;4913726;29;20211;-84
2023/03/15 05:11:35;;;;;;;9.57;2.55;;;2.00;99.90;;;;;;4912200;29;20208;-82
2023/03/15 05:14:05;;;;;;;9.95;3.58;;;2.00;99.90;;;;;;4922005;29;20466;-84
2023/03/15 05:16:34;;;;;;;4.05;2.83;;;1.90;99.90;;;;;;4919169;29;20209;-83
2023/03/15 05:19:02;;;;;;;10.52;3.20;;;1.80;99.90;;;;;;4912742;29;20200;-83
2023/03/15 05:21:29;;;;;;;8.40;3.08;;;1.70;99.90;;;;;;4911504;29;20201;-80
2023/03/15 05:23:56;;;;;;;14.57;10.35;;;1.70;99.90;;;;;;4920585;29;20226;-83
2023/03/15 05:26:23;;;;;;;10.35;3.80;;;1.70;99.90;;;;;;4922109;29;20197;-82
2023/03/15 05:28:51;;;;;;;6.50;2.33;;;1.70;99.90;;;;;;4921729;29;20209;-81
2023/03/15 05:31:18;;;;;;;4.82;2.95;;;1.70;99.90;;;;;;4923597;29;20407;-83
2023/03/15 05:33:47;;;;;;;8.15;4.50;;;1.70;99.90;;;;;;4924446;29;20356;-82
2023/03/15 05:36:15;;;;;;;7.20;3.15;;;1.70;99.90;;;;;;4922980;29;20215;-82
2023/03/15 05:38:42;;;;;;;8.23;4.28;;;1.80;99.90;;;;;;4925060;29;20206;-82
2023/03/15 05:41:20;;;;;;;16.15;4.25;;;1.90;99.90;;;;;;4921453;29;20205;-82
2023/03/15 05:43:47;;;;;;;4.20;2.63;;;2.00;99.90;;;;;;4913369;29;20560;-82
2023/03/15 05:46:14;;;;;;;9.10;3.47;;;2.00;99.90;;;;;;4914275;29;20208;-82
2023/03/15 05:48:41;;;;;;;11.13;3.70;;;2.10;99.90;;;;;;4912792;29;20213;-83
2023/03/15 05:51:08;;;;;;;7.38;4.22;;;2.20;99.90;;;;;;4922585;29;20569;-81
2023/03/15 05:53:35;;;;;;;6.25;2.83;;;2.30;99.90;;;;;;4911347;29;20206;-82
2023/03/15 05:56:02;;;;;;;10.20;3.33;;;2.40;99.90;;;;;;4920612;29;20215;-82
2023/03/15 05:58:29;;;;;;;5.07;2.50;;;2.60;99.90;;;;;;4912955;29;20262;-80
2023/03/15 06:00:56;;;;;;;14.70;2.85;;;2.70;99.90;;;;;;4911261;29;20204;-81
2023/03/15 06:03:23;;;;;;;8.85;3.10;;;2.70;99.90;;;;;;4908020;29;20220;-83
2023/03/15 06:05:51;;;;;;;4.65;2.25;;;2.70;99.90;;;;;;4911556;29;20283;-81
2023/03/15 06:08:18;;;;;;;6.93;2.25;;;2.70;99.90;;;;;;4922011;29;20228;-82
2023/03/15 06:10:45;;;;;;;4.75;3.45;;;2.60;99.90;;;;;;4904704;29;20720;-82
2023/03/15 06:13:14;;;;;;;8.20;2.80;;;2.50;99.90;;;;;;4920888;29;20218;-81
2023/03/15 06:15:46;;;;;;;5.47;2.00;;;2.60;99.90;;;;;;4913480;29;20219;-80
2023/03/15 06:18:16;;;;;;;5.18;2.13;;;2.90;99.90;;;;;;4920486;29;20210;-83
2023/03/15 06:20:43;;;;;;;8.20;3.33;;;3.00;99.90;;;;;;4911732;29;20370;-82
2023/03/15 06:23:10;;;;;;;8.02;2.72;;;3.00;99.90;;;;;;4907916;29;20248;-81
2023/03/15 06:25:37;;;;;;;18.58;4.75;;;3.30;99.90;;;;;;4911285;29;20298;-81
2023/03/15 06:28:04;;;;;;;6.35;2.75;;;3.50;99.90;;;;;;4907045;29;20500;-81
2023/03/15 06:30:31;;;;;;;5.15;2.50;;;3.50;99.90;;;;;;4917071;29;20524;-81
2023/03/15 06:32:59;;;;;;;6.20;2.42;;;3.60;99.90;;;;;;4908159;29;20456;-81
2023/03/15 06:35:26;;;;;;;6.22;2.60;;;3.70;99.90;;;;;;4909645;29;20219;-81
2023/03/15 06:37:53;;;;;;;5.95;1.83;;;3.80;99.90;;;;;;4907315;29;20252;-81
2023/03/15 06:40:22;;;;;;;4.55;2.78;;;3.90;99.90;;;;;;4908307;29;20224;-81
2023/03/15 06:42:49;;;;;;;10.00;2.83;;;4.10;99.90;;;;;;4905390;29;20212;-82
2023/03/15 06:45:16;;;;;;;8.50;2.80;;;4.30;99.90;;;;;;4915687;29;20298;-82
2023/03/15 06:47:43;;;;;;;3.08;1.77;;;4.70;99.90;;;;;;4919071;29;20456;-82
2023/03/15 06:50:10;;;;;;;7.30;1.90;;;5.00;99.90;;;;;;4906887;29;20217;-82
2023/03/15 06:52:37;;;;;;;7.30;1.85;;;5.30;99.90;;;;;;4912572;29;20253;-80
2023/03/15 06:55:04;;;;;;;5.95;2.17;;;5.30;99.90;;;;;;4909710;29;20217;-79
2023/03/15 06:57:32;;;;;;;7.28;2.10;;;5.50;99.90;;;;;;4911608;29;20513;-81
2023/03/15 06:59:59;;;;;;;8.27;1.80;;;5.90;99.90;;;;;;4917018;29;20500;-80
2023/03/15 07:02:26;;;;;;;4.28;2.17;;;6.00;99.90;;;;;;4908805;29;20210;-80
2023/03/15 07:04:53;;;;;;;4.47;1.85;;;6.10;99.90;;;;;;4907658;29;20232;-80
2023/03/15 07:07:20;;;;;;;10.95;2.55;;;6.20;99.90;;;;;;4920289;29;20216;-81
2023/03/15 07:09:47;;;;;;;4.70;1.67;;;6.30;99.90;;;;;;4907119;29;20555;-82
2023/03/15 07:12:13;;;;;;;3.85;1.38;;;6.30;99.90;;;;;;4915165;29;20468;-80
2023/03/15 07:14:40;;;;;;;5.85;1.80;;;6.80;99.90;;;;;;4919484;29;20761;-83
2023/03/15 07:17:07;;;;;;;5.82;1.80;;;7.30;99.90;;;;;;4917477;29;20209;-80
2023/03/15 07:19:34;;;;;;;3.55;1.80;;;7.70;99.90;;;;;;4922680;29;20219;-81
2023/03/15 07:22:07;;;;;;;12.18;2.33;;;8.30;99.90;;;;;;4920091;29;20215;-81
2023/03/15 07:24:33;;;;;;;6.50;2.35;;;8.70;99.90;;;;;;4918304;29;20239;-81
2023/03/15 07:27:00;;;;;;;6.20;2.25;;;8.80;99.90;;;;;;4912736;29;20280;-80
2023/03/15 07:29:27;;;;;;;4.68;2.85;;;8.60;99.90;;;;;;4909990;29;20205;-81
2023/03/15 07:31:54;;;;;;;4.20;1.85;;;9.10;99.90;;;;;;4915693;29;20400;-79
2023/03/15 07:34:21;;;;;;;6.30;2.20;;;8.80;99.90;;;;;;4909758;29;20221;-80
2023/03/15 07:36:48;;;;;;;6.10;2.53;;;8.60;99.90;;;;;;4907797;29;20252;-81
2023/03/15 07:39:15;;;;;;;5.95;2.03;;;8.60;99.90;;;;;;4921630;29;20255;-81
2023/03/15 07:41:42;;;;;;;4.68;2.25;;;8.70;99.90;;;;;;4910475;29;20393;-80
2023/03/15 07:44:09;;;;;;;2.58;2.17;;;8.80;99.90;;;;;;4920141;29;20236;-80
2023/03/15 07:46:35;;;;;;;4.97;2.60;;;8.70;99.90;;;;;;4912294;29;20208;-80
2023/03/15 07:49:02;;;;;;;3.97;2.10;;;8.90;99.90;;;;;;4906456;29;20260;-81
2023/03/15 07:51:29;;;;;;;3.10;1.70;;;9.30;99.90;;;;;;4919459;29;20230;-81
2023/03/15 07:53:56;;;;;;;5.40;1.85;;;9.10;99.90;;;;;;4917879;29;20212;-79
2023/03/15 07:56:23;;;;;;;5.40;1.90;;;8.40;99.90;;;;;;4920957;29;20210;-79
2023/03/15 07:58:50;;;;;;;8.25;1.83;;;8.20;99.90;;;;;;4913767;29;20213;-79
2023/03/15 08:01:16;;;;;;;4.93;2.25;;;8.80;99.90;;;;;;4917823;29;20217;-79
2023/03/15 08:03:43;;;;;;;5.55;2.20;;;8.80;99.90;;;;;;4916673;29;20223;-80
2023/03/15 08:06:10;;;;;;;3.90;1.50;;;8.60;99.90;;;;;;4923725;29;20454;-80
2023/03/15 08:08:37;;;;;;;7.90;1.98;;;8.20;99.90;;;;;;4925634;29;20223;-82
2023/03/15 08:11:05;;;;;;;4.78;1.63;;;8.00;99.90;;;;;;4913411;29;20419;-81
2023/03/15 08:13:32;;;;;;;11.75;2.22;;;8.00;99.90;;;;;;4923824;29;20482;-80
2023/03/15 08:16:00;;;;;;;5.55;1.80;;;8.10;99.90;;;;;;4920554;29;20217;-81
2023/03/15 08:18:30;;;;;;;9.13;2.42;;;8.20;99.90;;;;;;4911180;29;20219;-81
2023/03/15 08:20:58;;;;;;;2.95;1.80;;;8.20;99.90;;;;;;4922809;29;20224;-80
2023/03/15 08:23:25;;;;;;;2.20;1.55;;;8.20;99.90;;;;;;4928514;29;20255;-80
2023/03/15 08:25:51;;;;;;;4.35;1.40;;;7.90;99.90;;;;;;4934742;29;20224;-80
2023/03/15 08:28:18;;;;;;;4.00;2.08;;;7.60;99.90;;;;;;4927185;29;20188;-79
2023/03/15 08:30:45;;;;;;;8.90;2.13;;;7.80;99.90;;;;;;4919186;29;20195;-80
2023/03/15 08:33:12;;;;;;;4.50;2.00;;;7.60;99.90;;;;;;4922557;29;20232;-80
2023/03/15 08:35:40;;;;;;;5.45;2.10;;;7.60;99.90;;;;;;4921693;29;20214;-79
2023/03/15 08:38:08;;;;;;;8.07;1.52;;;7.80;99.90;;;;;;4907339;29;20213;-79
2023/03/15 08:40:35;;;;;;;5.32;2.17;;;8.20;99.90;;;;;;4906114;29;20261;-81
2023/03/15 08:43:04;;;;;;;11.00;1.95;;;8.30;99.90;;;;;;4922353;29;20247;-81
2023/03/15 08:45:31;;;;;;;6.93;2.28;;;8.20;99.90;;;;;;4922836;29;20536;-80
2023/03/15 08:48:08;;;;;;;4.28;1.55;;;8.00;99.90;;;;;;4910840;29;20231;-81
2023/03/15 08:50:35;;;;;;;5.80;2.00;;;7.80;99.90;;;;;;4914639;29;20208;-80
2023/03/15 08:53:05;;;;;;;11.50;2.10;;;7.50;99.90;;;;;;4913169;29;20202;-80
2023/03/15 08:55:39;;;;;;;2.72;1.70;;;7.60;99.90;;;;;;4919213;29;20231;-82
2023/03/15 08:58:06;;;;;;;5.28;2.40;;;7.80;99.90;;;;;;4913114;29;20216;-80
2023/03/15 09:00:33;;;;;;;5.38;1.90;;;7.90;99.90;;;;;;4920334;29;20504;-82
2023/03/15 09:03:00;;;;;;;6.10;1.67;;;8.00;99.90;;;;;;4923916;29;20394;-79
2023/03/15 09:05:27;;;;;;;8.52;2.53;;;7.80;99.90;;;;;;4919412;29;20237;-80
2023/03/15 09:07:54;;;;;;;4.82;1.58;;;7.80;99.90;;;;;;4917440;29;20277;-81
2023/03/15 09:10:21;;;;;;;11.82;3.03;;;7.80;99.90;;;;;;4923507;29;20211;-83
2023/03/15 09:12:52;;;;;;;6.25;1.90;;;7.80;99.90;;;;;;4915043;29;20248;-81
2023/03/15 09:15:20;;;;;;;9.32;2.40;;;7.90;99.90;;;;;;4914244;29;20222;-80
2023/03/15 09:17:49;;;;;;;6.78;2.35;;;8.10;99.90;;;;;;4914984;29;20215;-79
2023/03/15 09:20:17;;;;;;;4.63;1.40;;;8.30;99.90;;;;;;4918694;29;20212;-81
2023/03/15 09:22:53;;;;;;;5.68;1.75;;;8.30;99.90;;;;;;4913214;29;20227;-78
2023/03/15 09:25:21;;;;;;;5.30;1.35;;;8.40;99.90;;;;;;4916267;29;20267;-81
2023/03/15 09:27:49;;;;;;;6.63;1.67;;;8.40;99.90;;;;;;4920321;29;20212;-80
2023/03/15 09:30:17;;;;;;;2.95;1.70;;;8.10;99.90;;;;;;4912999;29;20210;-79
2023/03/15 09:32:44;;;;;;;5.47;1.30;;;7.90;99.90;;;;;;4910430;29;20268;-81
2023/03/15 09:35:15;;;;;;;3.33;1.50;;;7.90;99.90;;;;;;4922736;29;20216;-80
2023/03/15 09:37:41;;;;;;;4.00;1.15;;;7.50;99.90;;;;;;4912937;29;20416;-81
2023/03/15 09:40:33;;;;;;;5.55;1.70;;;7.40;99.90;;;;;;4911479;29;20209;-81
2023/03/15 09:43:07;;;;;;;3.55;1.42;;;7.70;99.90;;;;;;4910807;29;20592;-80
2023/03/15 09:46:12;;;;;;;5.20;1.65;;;7.90;99.90;;;;;;4904056;29;20475;-80
2023/03/15 09:49:08;;;;;;;6.03;1.92;;;8.10;99.90;;;;;;4911273;29;20513;-78
2023/03/15 09:51:41;;;;;;;9.70;1.63;;;8.30;99.90;;;;;;4910126;29;20222;-80
2023/03/15 09:54:23;;;;;;;4.93;1.63;;;8.20;99.90;;;;;;4913131;29;20272;-78
2023/03/15 09:57:03;;;;;;;3.67;1.20;;;8.30;99.90;;;;;;4919138;29;20212;-79
2023/03/15 09:59:41;;;;;;;6.50;1.92;;;8.60;99.90;;;;;;4916797;29;20506;-81
2023/03/15 10:02:26;;;;;;;7.07;2.38;;;8.90;99.90;;;;;;4920807;29;20251;-82
2023/03/15 10:05:05;;;;;;;10.65;1.52;;;8.90;99.90;;;;;;4911960;29;20287;-79
2023/03/15 10:07:33;;;;;;;10.02;1.75;;;8.80;99.90;;;;;;4915521;29;20683;-80
2023/03/15 10:10:03;;;;;;;5.28;1.65;;;8.60;99.90;;;;;;4916539;29;20448;-80
2023/03/15 10:12:40;;;;;;;5.25;1.52;;;8.30;99.90;;;;;;4916735;29;20204;-81
2023/03/15 10:15:30;;;;;;;8.40;2.38;;;8.20;99.90;;;;;;4908545;29;20512;-79
2023/03/15 10:17:58;;;;;;;5.78;1.75;;;8.20;99.90;;;;;;4910743;29;20201;-81
2023/03/15 10:20:28;;;;;;;5.80;1.83;;;8.40;99.90;;;;;;4919175;29;20257;-79
2023/03/15 10:23:02;;;;;;;5.53;1.40;;;8.50;99.90;;;;;;4917774;29;20484;-80
2023/03/15 10:25:30;;;;;;;5.30;1.60;;;8.70;99.90;;;;;;4906596;29;20387;-81
2023/03/15 10:28:11;;;;;;;9.65;2.10;;;8.60;99.90;;;;;;4917536;29;20212;-80
2023/03/15 10:30:46;;;;;;;8.00;1.90;;;8.40;99.90;;;;;;4914565;29;20211;-79
2023/03/15 10:33:25;;;;;;;3.47;1.25;;;8.20;99.90;;;;;;4909707;29;20213;-80
2023/03/15 10:35:52;;;;;;;6.68;1.83;;;8.50;99.90;;;;;;4913799;29;20236;-80
2023/03/15 10:38:33;;;;;;;3.05;1.83;;;8.80;99.90;;;;;;4919099;29;20227;-79
2023/03/15 10:41:00;;;;;;;3.30;2.13;;;8.80;99.90;;;;;;4909423;29;20254;-79
2023/03/15 10:43:35;;;;;;;3.08;2.00;;;8.70;99.90;;;;;;4912117;29;20442;-80
2023/03/15 10:46:10;;;;;;;8.18;1.70;;;8.70;99.90;;;;;;4914372;29;20271;-80
2023/03/15 10:48:40;;;;;;;4.22;2.08;;;8.90;99.90;;;;;;4916123;29;20220;-79
2023/03/15 10:51:18;;;;;;;7.60;1.80;;;9.10;99.90;;;;;;4881054;29;1067869;-78
2023/03/15 10:54:00;;;;;;;8.18;2.08;;;9.20;99.90;;;;;;4915822;29;20524;-81
2023/03/15 10:56:31;;;;;;;2.28;0.85;;;9.30;99.90;;;;;;4915789;29;20263;-81
2023/03/15 10:59:00;;;;;;;1.77;1.15;;;9.60;99.90;;;;;;4914327;29;20564;-80
2023/03/15 11:01:39;;;;;;;5.47;1.92;;;9.40;99.90;;;;;;4916827;29;20271;-81
2023/03/15 11:04:17;;;;;;;4.90;1.30;;;9.50;99.90;;;;;;4913833;29;20208;-80
2023/03/15 11:06:48;;;;;;;6.28;1.38;;;9.20;99.90;;;;;;4921957;29;20231;-78
2023/03/15 11:09:22;;;;;;;7.28;1.52;;;9.20;99.90;;;;;;4916904;29;20263;-82
2023/03/15 11:11:52;;;;;;;5.80;1.30;;;9.10;99.90;;;;;;4919172;29;20204;-79
2023/03/15 11:14:19;;;;;;;5.15;1.20;;;8.70;99.90;;;;;;4912480;29;20680;-81
2023/03/15 11:16:50;;;;;;;2.58;1.00;;;8.40;99.90;;;;;;4915766;29;20211;-79
2023/03/15 11:19:21;;;;;;;4.82;1.52;;;8.20;99.90;;;;;;4909368;29;20216;-80
2023/03/15 11:21:50;;;;;;;10.43;1.20;;;8.30;99.90;;;;;;4910604;29;20236;-80
2023/03/15 11:24:32;;;;;;;2.60;1.30;;;8.30;99.90;;;;;;4910063;29;20212;-80
2023/03/15 11:27:02;;;;;;;5.40;1.30;;;8.40;99.90;;;;;;4916921;29;20224;-80
2023/03/15 11:29:37;;;;;;;5.32;1.15;;;8.40;99.90;;;;;;4916530;29;20248;-79
2023/03/15 11:32:14;;;;;;;5.20;1.55;;;8.30;99.90;;;;;;4918263;29;20215;-81
2023/03/15 11:34:49;;;;;;;3.03;0.73;;;8.60;99.90;;;;;;4909604;29;20216;-80
2023/03/15 11:37:24;;;;;;;6.20;1.38;;;9.00;99.90;;;;;;4913368;29;20209;-78
2023/03/15 11:39:58;;;;;;;6.68;1.40;;;9.50;99.90;;;;;;4917930;29;20289;-79
2023/03/15 11:42:50;;;;;;;5.07;1.10;;;9.60;99.90;;;;;;4925266;29;20200;-80
2023/03/15 11:45:29;;;;;;;2.80;1.13;;;9.30;99.90;;;;;;4920122;29;20251;-82
2023/03/15 11:48:02;;;;;;;11.02;1.70;;;9.00;99.90;;;;;;4916191;29;20230;-79
2023/03/15 11:50:29;;;;;;;3.22;1.20;;;8.90;99.90;;;;;;4912403;29;20277;-82
2023/03/15 11:53:01;;;;;;;9.68;1.02;;;8.90;99.90;;;;;;4926026;29;20212;-81
2023/03/15 11:55:28;;;;;;;1.48;0.80;;;8.80;99.90;;;;;;4924342;29;20204;-81
2023/03/15 11:57:57;;;;;;;4.30;1.98;;;8.80;99.90;;;;;;4916717;29;20223;-80
2023/03/15 12:00:30;;;;;;;3.25;1.58;;;8.80;99.90;;;;;;4916093;29;20216;-78
2023/03/15 12:03:18;;;;;;;2.03;1.02;;;8.70;99.90;;;;;;4914364;29;20218;-82
2023/03/15 12:05:50;;;;;;;3.75;1.35;;;8.70;99.90;;;;;;4920323;29;20303;-81
2023/03/15 12:08:33;;;;;;;2.92;1.42;;;9.00;99.90;;;;;;4913058;29;20429;-81
2023/03/15 12:11:08;;;;;;;3.20;1.42;;;9.00;99.90;;;;;;4924996;29;20212;-81
2023/03/15 12:13:35;;;;;;;2.20;1.45;;;9.00;99.90;;;;;;4918123;29;20520;-81
2023/03/15 12:16:05;;;;;;;2.10;1.75;;;9.00;99.90;;;;;;4922541;29;20207;-79
2023/03/15 12:18:42;;;;;;;2.38;1.60;;;8.90;99.90;;;;;;4923930;29;20268;-80
2023/03/15 12:21:32;;;;;;;13.80;4.20;;;8.90;99.90;;;;;;4921006;29;20248;-81
2023/03/15 12:24:06;;;;;;;8.18;2.20;;;8.80;99.90;;;;;;4917874;29;20212;-79
2023/03/15 12:26:47;;;;;;;4.03;1.50;;;8.90;99.90;;;;;;4922701;29;20227;-79
2023/03/15 12:29:24;;;;;;;6.22;1.40;;;9.10;99.90;;;;;;4922969;29;20244;-80
2023/03/15 12:32:01;;;;;;;3.40;1.20;;;8.80;99.90;;;;;;4915342;29;20260;-80
2023/03/15 12:34:53;;;;;;;4.97;1.52;;;9.00;99.90;;;;;;4914278;29;20208;-80
2023/03/15 12:37:37;;;;;;;2.22;1.13;;;9.20;99.90;;;;;;4921536;29;20201;-79
2023/03/15 12:40:21;;;;;;;1.75;1.10;;;9.20;99.90;;;;;;4912920;29;20276;-80
2023/03/15 12:43:01;;;;;;;5.45;1.67;;;8.90;99.90;;;;;;4917923;29;20204;-81
2023/03/15 12:45:39;;;;;;;2.97;1.55;;;8.70;99.90;;;;;;4912413;29;20543;-81
2023/03/15 12:48:11;;;;;;;3.25;1.58;;;8.60;99.90;;;;;;4922148;29;20552;-81
2023/03/15 12:50:44;;;;;;;3.67;1.58;;;8.40;99.90;;;;;;4912986;29;20280;-81
2023/03/15 12:53:30;;;;;;;8.25;1.88;;;8.20;99.90;;;;;;4919879;29;20215;-80
2023/03/15 12:56:25;;;;;;;3.10;1.25;;;8.10;99.90;;;;;;4908796;29;20822;-81
2023/03/15 12:58:58;;;;;;;11.00;1.98;;;7.90;99.90;;;;;;4910555;29;20524;-79
2023/03/15 13:01:25;;;;;;;2.50;1.20;;;7.90;99.90;;;;;;4918702;29;20496;-81
2023/03/15 13:03:57;;;;;;;5.75;1.48;;;7.80;99.90;;;;;;4918912;29;20240;-80
2023/03/15 13:06:27;;;;;;;2.28;1.30;;;7.90;99.90;;;;;;4931999;29;20216;-80
2023/03/15 13:09:20;;;;;;;10.45;1.90;;;7.90;99.90;;;;;;4931015;29;20212;-80
2023/03/15 13:12:22;;;;;;;4.32;2.25;;;8.00;99.90;;;;;;4923542;29;20243;-81